createdAt,value
2019-06-07T00:00:36.757Z,0.00
2019-06-07T00:01:17.078Z,0.00
2019-06-07T00:02:16.505Z,0.00
2019-06-07T00:03:26.499Z,0.00
2019-06-07T00:04:16.322Z,0.00
2019-06-07T00:05:19.574Z,0.00
2019-06-07T00:06:21.326Z,0.00
2019-06-07T00:07:17.753Z,0.00
2019-06-07T00:08:26.666Z,0.00
2019-06-07T00:09:18.658Z,0.00
2019-06-07T00:10:34.896Z,0.00
2019-06-07T00:11:20.043Z,0.00
2019-06-07T00:12:17.568Z,0.00
2019-06-07T00:13:18.758Z,0.00
2019-06-07T00:14:16.613Z,0.00
2019-06-07T00:15:21.028Z,0.00
2019-06-07T00:16:20.832Z,0.00
2019-06-07T00:17:18.170Z,0.00
2019-06-07T00:18:20.994Z,0.00
2019-06-07T00:19:17.276Z,0.00
2019-06-07T00:20:19.496Z,0.00
2019-06-07T00:21:17.879Z,0.00
2019-06-07T00:22:28.455Z,0.00
2019-06-07T00:23:22.115Z,0.00
2019-06-07T00:24:18.564Z,0.00
2019-06-07T00:25:18.378Z,0.00
2019-06-07T00:26:18.196Z,0.00
2019-06-07T00:27:18.286Z,0.00
2019-06-07T00:28:17.305Z,0.00
2019-06-07T00:29:16.865Z,0.00
2019-06-07T00:30:44.435Z,0.00
2019-06-07T00:31:21.895Z,0.00
2019-06-07T00:32:21.213Z,0.00
2019-06-07T00:33:19.227Z,0.00
2019-06-07T00:34:17.029Z,0.00
2019-06-07T00:35:18.946Z,0.00
2019-06-07T00:36:17.658Z,0.00
2019-06-07T00:37:16.540Z,0.00
2019-06-07T00:38:16.819Z,0.00
2019-06-07T00:39:20.294Z,0.00
2019-06-07T00:40:20.991Z,0.00
2019-06-07T00:41:20.139Z,0.00
2019-06-07T00:42:17.480Z,0.00
2019-06-07T00:43:17.566Z,0.00
2019-06-07T00:44:19.707Z,0.00
2019-06-07T00:45:21.089Z,0.00
2019-06-07T00:46:17.865Z,0.00
2019-06-07T00:47:16.428Z,0.00
2019-06-07T00:48:21.354Z,0.00
2019-06-07T00:49:32.356Z,0.00
2019-06-07T00:50:16.493Z,0.00
2019-06-07T00:51:17.254Z,0.00
2019-06-07T00:53:05.656Z,0.00
2019-06-07T00:53:21.645Z,0.00
2019-06-07T00:54:18.584Z,0.00
2019-06-07T00:55:17.186Z,0.00
2019-06-07T00:56:16.200Z,0.00
2019-06-07T00:57:16.747Z,0.00
2019-06-07T00:58:15.466Z,0.00
2019-06-07T00:59:16.869Z,0.00
2019-06-07T01:00:15.583Z,0.00
2019-06-07T01:01:17.590Z,0.00
2019-06-07T01:02:16.669Z,0.00
2019-06-07T01:03:14.958Z,0.00
2019-06-07T01:04:17.737Z,0.00
2019-06-07T01:05:16.002Z,0.00
2019-06-07T01:06:14.999Z,0.00
2019-06-07T01:07:17.109Z,0.00
2019-06-07T01:08:16.159Z,0.00
2019-06-07T01:09:15.328Z,0.00
2019-06-07T01:10:21.160Z,0.00
2019-06-07T01:11:15.951Z,0.00
2019-06-07T01:12:18.118Z,0.00
2019-06-07T01:13:16.723Z,0.00
2019-06-07T01:14:18.458Z,0.00
2019-06-07T01:15:17.542Z,0.00
2019-06-07T01:16:16.160Z,0.00
2019-06-07T01:17:27.655Z,0.00
2019-06-07T01:19:16.337Z,0.00
2019-06-07T01:20:14.378Z,0.00
2019-06-07T01:21:15.824Z,0.00
2019-06-07T01:22:16.468Z,0.00
2019-06-07T01:23:55.250Z,0.00
2019-06-07T01:24:15.359Z,0.00
2019-06-07T01:25:15.745Z,0.00
2019-06-07T01:26:16.777Z,0.00
2019-06-07T01:27:16.689Z,0.00
2019-06-07T01:28:16.428Z,0.00
2019-06-07T01:29:14.286Z,0.00
2019-06-07T01:30:14.297Z,0.00
2019-06-07T01:31:14.271Z,0.00
2019-06-07T01:32:14.276Z,0.00
2019-06-07T01:33:14.255Z,0.00
2019-06-07T01:34:14.346Z,0.00
2019-06-07T01:35:14.216Z,0.00
2019-06-07T01:36:14.206Z,0.00
2019-06-07T01:37:14.241Z,0.00
2019-06-07T01:38:14.203Z,0.00
2019-06-07T01:39:14.173Z,0.00
2019-06-07T01:40:14.216Z,0.00
2019-06-07T01:41:14.151Z,0.00
2019-06-07T01:42:14.138Z,0.00
2019-06-07T01:43:14.127Z,0.00
2019-06-07T01:44:14.120Z,0.00
2019-06-07T01:45:14.432Z,0.00
2019-06-07T01:46:14.093Z,0.00
2019-06-07T01:47:14.099Z,0.00
2019-06-07T01:48:14.073Z,0.00
2019-06-07T01:49:14.064Z,0.00
2019-06-07T01:50:14.250Z,0.00
2019-06-07T01:51:14.073Z,0.00
2019-06-07T01:52:14.028Z,0.00
2019-06-07T01:53:14.098Z,0.00
2019-06-07T01:54:49.564Z,0.00
2019-06-07T01:55:14.997Z,0.00
2019-06-07T01:56:14.006Z,0.00
2019-06-07T01:57:30.931Z,0.00
2019-06-07T01:58:15.126Z,0.00
2019-06-07T01:59:13.951Z,0.00
2019-06-07T02:00:14.528Z,0.00
2019-06-07T02:01:13.928Z,0.00
2019-06-07T02:02:13.942Z,0.00
2019-06-07T02:03:13.918Z,0.00
2019-06-07T02:04:13.892Z,0.00
2019-06-07T02:05:13.892Z,0.00
2019-06-07T02:06:14.030Z,0.00
2019-06-07T02:07:13.894Z,0.00
2019-06-07T02:08:13.861Z,0.00
2019-06-07T02:09:13.966Z,0.00
2019-06-07T02:10:13.853Z,0.00
2019-06-07T02:11:13.818Z,0.00
2019-06-07T02:12:25.548Z,0.00
2019-06-07T02:13:14.791Z,0.00
2019-06-07T02:14:13.783Z,0.00
2019-06-07T02:15:13.815Z,0.00
2019-06-07T02:16:13.763Z,0.00
2019-06-07T02:17:13.752Z,0.00
2019-06-07T02:18:13.742Z,0.00
2019-06-07T02:19:13.751Z,0.00
2019-06-07T02:20:13.740Z,0.00
2019-06-07T02:21:13.726Z,0.00
2019-06-07T02:22:13.710Z,0.00
2019-06-07T02:23:13.714Z,0.00
2019-06-07T02:24:13.681Z,0.00
2019-06-07T02:25:49.960Z,0.00
2019-06-07T02:26:14.652Z,0.00
2019-06-07T02:27:13.671Z,0.00
2019-06-07T02:28:27.318Z,0.00
2019-06-07T02:29:14.616Z,0.00
2019-06-07T02:31:14.614Z,0.00
2019-06-07T02:32:13.593Z,0.00
2019-06-07T02:33:13.618Z,0.00
2019-06-07T02:34:13.563Z,0.00
2019-06-07T02:35:13.560Z,0.00
2019-06-07T02:36:13.543Z,0.00
2019-06-07T02:37:13.545Z,0.00
2019-06-07T02:38:13.548Z,0.00
2019-06-07T02:39:13.508Z,0.00
2019-06-07T02:40:13.497Z,0.00
2019-06-07T02:41:13.489Z,0.00
2019-06-07T02:42:13.475Z,0.00
2019-06-07T02:43:13.497Z,0.00
2019-06-07T02:44:13.453Z,0.00
2019-06-07T02:45:13.443Z,0.00
2019-06-07T02:46:28.026Z,0.00
2019-06-07T02:47:14.419Z,0.00
2019-06-07T02:48:13.406Z,4.00
2019-06-07T02:49:13.478Z,4.00
2019-06-07T02:50:13.391Z,4.00
2019-06-07T02:51:13.372Z,4.00
2019-06-07T02:52:13.367Z,0.00
2019-06-07T02:53:13.372Z,4.00
2019-06-07T02:54:13.341Z,4.00
2019-06-07T02:55:13.394Z,8.00
2019-06-07T02:56:48.796Z,4.00
2019-06-07T02:57:14.369Z,8.00
2019-06-07T02:58:13.291Z,8.00
2019-06-07T02:59:13.369Z,8.00
2019-06-07T03:00:40.030Z,8.00
2019-06-07T03:01:14.303Z,8.00
2019-06-07T03:02:13.250Z,8.00
2019-06-07T03:03:13.252Z,12.00
2019-06-07T03:04:13.225Z,16.00
2019-06-07T03:05:13.338Z,16.00
2019-06-07T03:06:13.223Z,16.00
2019-06-07T03:07:13.190Z,20.00
2019-06-07T03:08:13.177Z,24.00
2019-06-07T03:09:13.171Z,24.00
2019-06-07T03:10:13.314Z,28.00
2019-06-07T03:11:13.171Z,32.00
2019-06-07T03:12:13.140Z,36.00
2019-06-07T03:13:13.330Z,36.00
2019-06-07T03:14:13.115Z,44.00
2019-06-07T03:15:32.116Z,44.00
2019-06-07T03:16:14.113Z,48.00
2019-06-07T03:17:13.088Z,48.00
2019-06-07T03:18:13.120Z,52.00
2019-06-07T03:19:13.053Z,60.00
2019-06-07T03:20:13.077Z,60.00
2019-06-07T03:21:13.034Z,68.00
2019-06-07T03:22:13.033Z,72.00
2019-06-07T03:23:13.035Z,76.00
2019-06-07T03:24:12.999Z,80.00
2019-06-07T03:25:13.003Z,84.00
2019-06-07T03:26:13.011Z,88.00
2019-06-07T03:28:13.977Z,92.00
2019-06-07T03:29:12.993Z,100.00
2019-06-07T03:31:13.938Z,108.00
2019-06-07T03:32:12.916Z,108.00
2019-06-07T03:33:12.910Z,112.00
2019-06-07T03:34:12.962Z,116.00
2019-06-07T03:35:12.927Z,120.00
2019-06-07T03:36:23.391Z,124.00
2019-06-07T03:37:13.853Z,132.00
2019-06-07T03:38:12.849Z,132.00
2019-06-07T03:39:12.836Z,140.00
2019-06-07T03:40:12.855Z,144.00
2019-06-07T03:41:12.820Z,152.00
2019-06-07T03:42:12.830Z,160.00
2019-06-07T03:43:12.796Z,164.00
2019-06-07T03:44:12.786Z,172.00
2019-06-07T03:45:12.850Z,176.00
2019-06-07T03:46:12.771Z,184.00
2019-06-07T03:47:12.878Z,192.00
2019-06-07T03:48:12.743Z,200.00
2019-06-07T03:49:12.732Z,204.00
2019-06-07T03:50:12.718Z,212.00
2019-06-07T03:51:24.499Z,220.00
2019-06-07T03:52:13.696Z,232.00
2019-06-07T03:53:12.688Z,240.00
2019-06-07T03:54:12.670Z,248.00
2019-06-07T03:55:12.683Z,260.00
2019-06-07T03:56:13.572Z,272.00
2019-06-07T03:57:12.675Z,280.00
2019-06-07T03:59:13.616Z,308.00
2019-06-07T04:00:12.601Z,320.00
2019-06-07T04:01:12.593Z,336.00
2019-06-07T04:02:12.577Z,352.00
2019-06-07T04:03:32.295Z,364.00
2019-06-07T04:04:13.552Z,372.00
2019-06-07T04:05:12.542Z,384.00
2019-06-07T04:06:12.653Z,392.00
2019-06-07T04:07:12.535Z,392.00
2019-06-07T04:08:12.534Z,392.00
2019-06-07T04:09:12.519Z,392.00
2019-06-07T04:10:12.536Z,388.00
2019-06-07T04:11:12.474Z,392.00
2019-06-07T04:12:12.470Z,396.00
2019-06-07T04:13:12.463Z,400.00
2019-06-07T04:14:12.622Z,404.00
2019-06-07T04:15:12.454Z,412.00
2019-06-07T04:16:12.418Z,416.00
2019-06-07T04:17:12.419Z,424.00
2019-06-07T04:18:12.439Z,428.00
2019-06-07T04:19:12.408Z,436.00
2019-06-07T04:20:12.378Z,444.00
2019-06-07T04:21:12.383Z,452.00
2019-06-07T04:22:12.426Z,460.00
2019-06-07T04:23:27.868Z,460.00
2019-06-07T04:24:13.355Z,468.00
2019-06-07T04:25:12.403Z,484.00
2019-06-07T04:26:12.362Z,492.00
2019-06-07T04:27:12.297Z,500.00
2019-06-07T04:28:12.311Z,504.00
2019-06-07T04:30:13.339Z,528.00
2019-06-07T04:31:12.263Z,552.00
2019-06-07T04:32:12.249Z,576.00
2019-06-07T04:33:12.259Z,596.00
2019-06-07T04:34:12.278Z,616.00
2019-06-07T04:35:12.218Z,640.00
2019-06-07T04:36:12.242Z,660.00
2019-06-07T04:37:12.199Z,672.00
2019-06-07T04:38:12.251Z,680.00
2019-06-07T04:39:12.178Z,692.00
2019-06-07T04:40:12.158Z,724.00
2019-06-07T04:41:12.208Z,772.00
2019-06-07T04:42:12.164Z,820.00
2019-06-07T04:43:12.139Z,844.00
2019-06-07T04:44:12.135Z,848.00
2019-06-07T04:45:32.452Z,848.00
2019-06-07T04:46:13.090Z,828.00
2019-06-07T04:47:12.087Z,788.00
2019-06-07T04:48:12.069Z,744.00
2019-06-07T04:49:12.193Z,692.00
2019-06-07T04:50:12.090Z,672.00
2019-06-07T04:51:12.052Z,668.00
2019-06-07T04:52:12.031Z,668.00
2019-06-07T04:53:12.022Z,676.00
2019-06-07T04:54:12.004Z,684.00
2019-06-07T04:55:12.002Z,688.00
2019-06-07T04:56:12.014Z,696.00
2019-06-07T04:57:11.968Z,700.00
2019-06-07T04:58:19.034Z,712.00
2019-06-07T04:59:11.951Z,720.00
2019-06-07T05:00:46.297Z,720.00
2019-06-07T05:01:26.895Z,724.00
2019-06-07T05:02:12.911Z,704.00
2019-06-07T05:03:11.911Z,672.00
2019-06-07T05:04:11.893Z,668.00
2019-06-07T05:05:11.919Z,708.00
2019-06-07T05:06:11.871Z,708.00
2019-06-07T05:07:11.878Z,720.00
2019-06-07T05:09:12.851Z,752.00
2019-06-07T05:10:11.837Z,748.00
2019-06-07T05:11:11.816Z,744.00
2019-06-07T05:12:11.872Z,772.00
2019-06-07T05:13:11.797Z,776.00
2019-06-07T05:14:11.788Z,784.00
2019-06-07T05:15:11.775Z,808.00
2019-06-07T05:16:11.768Z,884.00
2019-06-07T05:17:11.782Z,988.00
2019-06-07T05:18:11.762Z,1064.00
2019-06-07T05:19:12.504Z,1144.00
2019-06-07T05:20:11.758Z,1224.00
2019-06-07T05:21:11.708Z,1268.00
2019-06-07T05:22:11.709Z,1272.00
2019-06-07T05:23:11.677Z,1256.00
2019-06-07T05:24:11.803Z,1220.00
2019-06-07T05:25:11.673Z,1160.00
2019-06-07T05:26:11.648Z,1092.00
2019-06-07T05:27:11.639Z,1004.00
2019-06-07T05:28:11.628Z,948.00
2019-06-07T05:29:11.615Z,936.00
2019-06-07T05:30:50.600Z,920.00
2019-06-07T05:31:12.602Z,876.00
2019-06-07T05:32:11.654Z,868.00
2019-06-07T05:33:11.579Z,860.00
2019-06-07T05:34:11.569Z,900.00
2019-06-07T05:35:11.598Z,932.00
2019-06-07T05:36:11.538Z,956.00
2019-06-07T05:37:12.365Z,1000.00
2019-06-07T05:38:11.531Z,1044.00
2019-06-07T05:39:11.504Z,1080.00
2019-06-07T05:40:11.560Z,1108.00
2019-06-07T05:41:11.493Z,1132.00
2019-06-07T05:42:11.639Z,1148.00
2019-06-07T05:43:11.486Z,1148.00
2019-06-07T05:44:13.080Z,1160.00
2019-06-07T05:45:11.468Z,1156.00
2019-06-07T05:46:11.442Z,1144.00
2019-06-07T05:47:11.417Z,1120.00
2019-06-07T05:48:11.483Z,1096.00
2019-06-07T05:49:11.416Z,1072.00
2019-06-07T05:50:50.064Z,1044.00
2019-06-07T05:51:12.370Z,1016.00
2019-06-07T05:52:11.368Z,992.00
2019-06-07T05:53:11.348Z,980.00
2019-06-07T05:54:11.369Z,968.00
2019-06-07T05:55:11.328Z,964.00
2019-06-07T05:56:12.218Z,964.00
2019-06-07T05:57:11.305Z,972.00
2019-06-07T05:58:11.298Z,968.00
2019-06-07T05:59:11.310Z,988.00
2019-06-07T06:00:11.270Z,1016.00
2019-06-07T06:01:42.225Z,1028.00
2019-06-07T06:02:22.242Z,1044.00
2019-06-07T06:03:12.240Z,1076.00
2019-06-07T06:04:11.364Z,1112.00
2019-06-07T06:05:32.004Z,1144.00
2019-06-07T06:06:12.199Z,1184.00
2019-06-07T06:07:11.223Z,1208.00
2019-06-07T06:08:11.179Z,1220.00
2019-06-07T06:09:14.133Z,1224.00
2019-06-07T06:10:11.192Z,1256.00
2019-06-07T06:11:11.158Z,1264.00
2019-06-07T06:12:11.143Z,1276.00
2019-06-07T06:13:11.127Z,1296.00
2019-06-07T06:14:11.121Z,1320.00
2019-06-07T06:15:11.125Z,1360.00
2019-06-07T06:16:11.141Z,1376.00
2019-06-07T06:17:11.083Z,1416.00
2019-06-07T06:18:11.073Z,1436.00
2019-06-07T06:19:11.070Z,1444.00
2019-06-07T06:20:11.098Z,1444.00
2019-06-07T06:21:19.387Z,1428.00
2019-06-07T06:22:12.064Z,1420.00
2019-06-07T06:23:11.044Z,1420.00
2019-06-07T06:24:11.005Z,1472.00
2019-06-07T06:26:11.987Z,1548.00
2019-06-07T06:27:41.517Z,1616.00
2019-06-07T06:28:13.174Z,1712.00
2019-06-07T06:29:10.956Z,1784.00
2019-06-07T06:30:10.939Z,1868.00
2019-06-07T06:31:10.927Z,1948.00
2019-06-07T06:33:30.511Z,2032.00
2019-06-07T06:34:11.899Z,2052.00
2019-06-07T06:35:10.889Z,1976.00
2019-06-07T06:36:10.879Z,1976.00
2019-06-07T06:37:10.870Z,1860.00
2019-06-07T06:38:10.855Z,1856.00
2019-06-07T06:39:10.862Z,1848.00
2019-06-07T06:40:10.838Z,1936.00
2019-06-07T06:41:15.880Z,1984.00
2019-06-07T06:42:11.809Z,2048.00
2019-06-07T06:43:10.810Z,2100.00
2019-06-07T06:44:10.952Z,2136.00
2019-06-07T06:45:10.778Z,2100.00
2019-06-07T06:46:10.761Z,2084.00
2019-06-07T06:47:10.805Z,2108.00
2019-06-07T06:48:10.748Z,2096.00
2019-06-07T06:49:10.744Z,2208.00
2019-06-07T06:50:10.776Z,2308.00
2019-06-07T06:51:10.711Z,2268.00
2019-06-07T06:52:10.733Z,2188.00
2019-06-07T06:53:10.695Z,2060.00
2019-06-07T06:54:10.695Z,1964.00
2019-06-07T06:55:10.672Z,1940.00
2019-06-07T06:56:10.679Z,1944.00
2019-06-07T06:57:19.449Z,2028.00
2019-06-07T06:58:11.641Z,2100.00
2019-06-07T06:59:37.124Z,2176.00
2019-06-07T07:00:11.607Z,2240.00
2019-06-07T07:01:10.638Z,2312.00
2019-06-07T07:02:10.599Z,2372.00
2019-06-07T07:04:13.417Z,2404.00
2019-06-07T07:05:10.556Z,2360.00
2019-06-07T07:06:25.304Z,2344.00
2019-06-07T07:07:11.559Z,2280.00
2019-06-07T07:08:10.648Z,2224.00
2019-06-07T07:09:10.538Z,2108.00
2019-06-07T07:10:10.528Z,1976.00
2019-06-07T07:11:10.507Z,1792.00
2019-06-07T07:12:12.857Z,1632.00
2019-06-07T07:13:10.468Z,1500.00
2019-06-07T07:14:10.485Z,1428.00
2019-06-07T07:15:10.446Z,1364.00
2019-06-07T07:16:10.432Z,1328.00
2019-06-07T07:17:10.466Z,1344.00
2019-06-07T07:18:10.411Z,1404.00
2019-06-07T07:19:10.427Z,1456.00
2019-06-07T07:20:10.409Z,1576.00
2019-06-07T07:21:10.399Z,1548.00
2019-06-07T07:22:10.365Z,1612.00
2019-06-07T07:23:10.354Z,1532.00
2019-06-07T07:24:21.147Z,1544.00
2019-06-07T07:25:11.338Z,1676.00
2019-06-07T07:26:10.324Z,1632.00
2019-06-07T07:27:10.407Z,1644.00
2019-06-07T07:28:10.299Z,1712.00
2019-06-07T07:29:10.288Z,1728.00
2019-06-07T07:30:36.053Z,1668.00
2019-06-07T07:31:11.273Z,1596.00
2019-06-07T07:32:10.332Z,1504.00
2019-06-07T07:33:10.240Z,1464.00
2019-06-07T07:34:32.001Z,1472.00
2019-06-07T07:35:11.257Z,1476.00
2019-06-07T07:36:28.588Z,1444.00
2019-06-07T07:37:11.247Z,1504.00
2019-06-07T07:38:10.188Z,1536.00
2019-06-07T07:39:10.196Z,1584.00
2019-06-07T07:40:55.366Z,1600.00
2019-06-07T07:41:15.503Z,1616.00
2019-06-07T07:42:20.671Z,1692.00
2019-06-07T07:43:11.152Z,1740.00
2019-06-07T07:44:10.153Z,1648.00
2019-06-07T07:45:10.137Z,1608.00
2019-06-07T07:46:28.346Z,1640.00
2019-06-07T07:47:11.086Z,1608.00
2019-06-07T07:48:17.670Z,1568.00
2019-06-07T07:49:11.086Z,1444.00
2019-06-07T07:50:10.077Z,1420.00
2019-06-07T07:51:10.080Z,1372.00
2019-06-07T07:52:10.069Z,1360.00
2019-06-07T07:53:10.020Z,1284.00
2019-06-07T07:54:11.357Z,1332.00
2019-06-07T07:55:10.026Z,1396.00
2019-06-07T07:56:09.985Z,1404.00
2019-06-07T07:57:10.007Z,1384.00
2019-06-07T07:58:09.983Z,1292.00
2019-06-07T07:59:10.173Z,1216.00
2019-06-07T08:00:48.614Z,1108.00
2019-06-07T08:01:11.430Z,1152.00
2019-06-07T08:02:09.926Z,1156.00
2019-06-07T08:03:09.922Z,1160.00
2019-06-07T08:04:10.043Z,1156.00
2019-06-07T08:05:22.667Z,1160.00
2019-06-07T08:06:10.888Z,1152.00
2019-06-07T08:07:09.866Z,1156.00
2019-06-07T08:08:09.860Z,1108.00
2019-06-07T08:09:09.840Z,1120.00
2019-06-07T08:10:09.850Z,1136.00
2019-06-07T08:11:09.826Z,1160.00
2019-06-07T08:12:09.806Z,1180.00
2019-06-07T08:13:27.280Z,1196.00
2019-06-07T08:14:10.790Z,1200.00
2019-06-07T08:15:09.789Z,1164.00
2019-06-07T08:16:16.249Z,1156.00
2019-06-07T08:17:10.752Z,1136.00
2019-06-07T08:18:09.752Z,1124.00
2019-06-07T08:19:09.757Z,1112.00
2019-06-07T08:20:09.909Z,1132.00
2019-06-07T08:21:24.531Z,1140.00
2019-06-07T08:22:10.707Z,1148.00
2019-06-07T08:23:09.796Z,1156.00
2019-06-07T08:24:09.713Z,1140.00
2019-06-07T08:25:09.706Z,1128.00
2019-06-07T08:26:09.698Z,1184.00
2019-06-07T08:27:25.415Z,1196.00
2019-06-07T08:28:10.782Z,1188.00
2019-06-07T08:29:09.655Z,1172.00
2019-06-07T08:30:46.709Z,1172.00
2019-06-07T08:31:10.653Z,1156.00
2019-06-07T08:32:09.609Z,1164.00
2019-06-07T08:33:25.242Z,1168.00
2019-06-07T08:34:10.566Z,1200.00
2019-06-07T08:35:09.638Z,1212.00
2019-06-07T08:36:19.937Z,1228.00
2019-06-07T08:37:10.535Z,1240.00
2019-06-07T08:38:26.881Z,1256.00
2019-06-07T08:39:10.512Z,1248.00
2019-06-07T08:40:09.506Z,1344.00
2019-06-07T08:41:12.193Z,1272.00
2019-06-07T08:42:17.917Z,1480.00
2019-06-07T08:43:19.635Z,1644.00
2019-06-07T08:44:23.281Z,1660.00
2019-06-07T08:45:10.449Z,1708.00
2019-06-07T08:46:09.436Z,1944.00
2019-06-07T08:47:20.110Z,2104.00
2019-06-07T08:48:27.002Z,2140.00
2019-06-07T08:49:10.427Z,2200.00
2019-06-07T08:50:09.395Z,2164.00
2019-06-07T08:51:09.381Z,2040.00
2019-06-07T08:52:12.128Z,2052.00
2019-06-07T08:53:12.360Z,2056.00
2019-06-07T08:54:22.117Z,2228.00
2019-06-07T08:55:10.459Z,2356.00
2019-06-07T08:56:11.343Z,2520.00
2019-06-07T08:57:20.411Z,2732.00
2019-06-07T08:58:10.313Z,2772.00
2019-06-07T08:59:11.522Z,2700.00
2019-06-07T09:00:42.434Z,2676.00
2019-06-07T09:01:10.281Z,2592.00
2019-06-07T09:02:22.880Z,2560.00
2019-06-07T09:03:10.251Z,2396.00
2019-06-07T09:04:11.231Z,2232.00
2019-06-07T09:05:12.549Z,2108.00
2019-06-07T09:06:53.938Z,1860.00
2019-06-07T09:07:19.219Z,1732.00
2019-06-07T09:08:28.707Z,1640.00
2019-06-07T09:09:10.198Z,1576.00
2019-06-07T09:10:14.215Z,1512.00
2019-06-07T09:11:11.454Z,1488.00
2019-06-07T09:12:11.427Z,1520.00
2019-06-07T09:13:11.621Z,1508.00
2019-06-07T09:14:09.510Z,1524.00
2019-06-07T09:15:20.496Z,1504.00
2019-06-07T09:16:10.096Z,1456.00
2019-06-07T09:17:12.298Z,1428.00
2019-06-07T09:18:37.781Z,1432.00
2019-06-07T09:19:10.988Z,1476.00
2019-06-07T09:20:34.069Z,1532.00
2019-06-07T09:21:10.167Z,1548.00
2019-06-07T09:22:11.294Z,1576.00
2019-06-07T09:23:16.643Z,1628.00
2019-06-07T09:24:11.672Z,1680.00
2019-06-07T09:25:20.059Z,1640.00
2019-06-07T09:26:17.964Z,1680.00
2019-06-07T09:27:10.592Z,1612.00
2019-06-07T09:28:19.119Z,1616.00
2019-06-07T09:29:12.033Z,1644.00
2019-06-07T09:30:16.322Z,1632.00
2019-06-07T09:31:12.485Z,1640.00
2019-06-07T09:32:12.140Z,1668.00
2019-06-07T09:33:09.946Z,1644.00
2019-06-07T09:34:13.937Z,1600.00
2019-06-07T09:35:16.467Z,1524.00
2019-06-07T09:36:12.981Z,1476.00
2019-06-07T09:37:54.436Z,1472.00
2019-06-07T09:38:23.770Z,1500.00
2019-06-07T09:39:12.449Z,1464.00
2019-06-07T09:40:21.671Z,1396.00
2019-06-07T09:41:09.933Z,1504.00
2019-06-07T09:42:12.278Z,1508.00
2019-06-07T09:43:58.997Z,1500.00
2019-06-07T09:44:23.700Z,1504.00
2019-06-07T09:45:13.927Z,1508.00
2019-06-07T09:46:12.826Z,1504.00
2019-06-07T09:47:30.164Z,1516.00
2019-06-07T09:48:15.420Z,1528.00
2019-06-07T09:49:19.184Z,1524.00
2019-06-07T09:50:12.174Z,1536.00
2019-06-07T09:51:19.009Z,1552.00
2019-06-07T09:52:11.108Z,1544.00
2019-06-07T09:53:21.025Z,1544.00
2019-06-07T09:54:11.490Z,1556.00
2019-06-07T09:55:23.087Z,1564.00
2019-06-07T09:56:12.201Z,1584.00
2019-06-07T09:57:16.570Z,1604.00
2019-06-07T09:58:48.655Z,1612.00
2019-06-07T09:59:12.694Z,1604.00
2019-06-07T10:00:36.790Z,1640.00
2019-06-07T10:01:13.468Z,1680.00
2019-06-07T10:02:13.319Z,1688.00
2019-06-07T10:03:20.489Z,1684.00
2019-06-07T10:04:28.221Z,1684.00
2019-06-07T10:05:13.976Z,1692.00
2019-06-07T10:06:13.416Z,1684.00
2019-06-07T10:07:28.113Z,1688.00
2019-06-07T10:08:41.346Z,1620.00
2019-06-07T10:11:09.497Z,1776.00
2019-06-07T10:12:08.621Z,1784.00
2019-06-07T10:13:08.967Z,1780.00
2019-06-07T10:14:08.789Z,1788.00
2019-06-07T10:15:09.008Z,1796.00
2019-06-07T10:16:08.859Z,1816.00
2019-06-07T10:17:09.202Z,1820.00
2019-06-07T10:18:09.181Z,1836.00
2019-06-07T10:19:09.888Z,1860.00
2019-06-07T10:20:09.749Z,1880.00
2019-06-07T10:21:14.487Z,1880.00
2019-06-07T10:22:09.758Z,1876.00
2019-06-07T10:23:09.977Z,1868.00
2019-06-07T10:24:09.617Z,1864.00
2019-06-07T10:25:08.625Z,1852.00
2019-06-07T10:26:08.388Z,1844.00
2019-06-07T10:27:08.319Z,1844.00
2019-06-07T10:28:08.455Z,1860.00
2019-06-07T10:29:09.068Z,1864.00
2019-06-07T10:30:08.432Z,1848.00
2019-06-07T10:31:09.860Z,1852.00
2019-06-07T10:32:09.196Z,1860.00
2019-06-07T10:33:08.567Z,1868.00
2019-06-07T10:34:08.489Z,1868.00
2019-06-07T10:35:11.322Z,1884.00
2019-06-07T10:36:08.633Z,1900.00
2019-06-07T10:37:11.461Z,1920.00
2019-06-07T10:38:09.192Z,1944.00
2019-06-07T10:39:09.110Z,1972.00
2019-06-07T10:40:09.279Z,1980.00
2019-06-07T10:41:08.917Z,1972.00
2019-06-07T10:42:09.663Z,1996.00
2019-06-07T10:43:09.138Z,2000.00
2019-06-07T10:44:09.392Z,1980.00
2019-06-07T10:45:10.145Z,1992.00
2019-06-07T10:46:09.806Z,2016.00
2019-06-07T10:47:08.297Z,2000.00
2019-06-07T10:48:08.119Z,2032.00
2019-06-07T10:49:08.080Z,2044.00
2019-06-07T10:50:08.216Z,2068.00
2019-06-07T10:51:08.591Z,2100.00
2019-06-07T10:52:09.673Z,2132.00
2019-06-07T10:53:08.423Z,2148.00
2019-06-07T10:54:23.550Z,2184.00
2019-06-07T10:55:09.017Z,2184.00
2019-06-07T10:56:09.040Z,2156.00
2019-06-07T10:57:10.953Z,2160.00
2019-06-07T10:58:09.170Z,2176.00
2019-06-07T11:00:07.126Z,2176.00
2019-06-07T11:01:07.334Z,2048.00
2019-06-07T11:02:07.829Z,1900.00
2019-06-07T11:03:07.871Z,1900.00
2019-06-07T11:04:07.666Z,1832.00
2019-06-07T11:05:07.952Z,1732.00
2019-06-07T11:06:06.099Z,1868.00
2019-06-07T11:07:06.525Z,2252.00
2019-06-07T11:08:06.079Z,2552.00
2019-06-07T11:09:06.071Z,2448.00
2019-06-07T11:10:10.959Z,2768.00
2019-06-07T11:11:07.955Z,2636.00
2019-06-07T11:12:06.380Z,2428.00
2019-06-07T11:13:06.166Z,2276.00
2019-06-07T11:14:06.436Z,2220.00
2019-06-07T11:15:06.626Z,2200.00
2019-06-07T11:16:06.841Z,2220.00
2019-06-07T11:17:07.329Z,2232.00
2019-06-07T11:18:06.290Z,2260.00
2019-06-07T11:19:06.161Z,2280.00
2019-06-07T11:20:06.097Z,2300.00
2019-06-07T11:21:06.104Z,2300.00
2019-06-07T11:22:06.097Z,2324.00
2019-06-07T11:23:06.694Z,2336.00
2019-06-07T11:24:06.183Z,2356.00
2019-06-07T11:25:07.284Z,2328.00
2019-06-07T11:26:06.221Z,2308.00
2019-06-07T11:27:07.149Z,2308.00
2019-06-07T11:28:06.309Z,2304.00
2019-06-07T11:29:06.663Z,2308.00
2019-06-07T11:30:06.232Z,2312.00
2019-06-07T11:31:06.334Z,2344.00
2019-06-07T11:32:06.331Z,2356.00
2019-06-07T11:33:06.405Z,2372.00
2019-06-07T11:34:06.347Z,2376.00
2019-06-07T11:35:06.394Z,2404.00
2019-06-07T11:36:06.710Z,2388.00
2019-06-07T11:37:07.340Z,2396.00
2019-06-07T11:38:06.377Z,2416.00
2019-06-07T11:39:06.510Z,2448.00
2019-06-07T11:40:06.517Z,2448.00
2019-06-07T11:41:07.407Z,2460.00
2019-06-07T11:42:05.815Z,2496.00
2019-06-07T11:43:06.638Z,2496.00
2019-06-07T11:44:06.689Z,2524.00
2019-06-07T11:45:05.783Z,2544.00
2019-06-07T11:46:06.707Z,2540.00
2019-06-07T11:47:06.368Z,2540.00
2019-06-07T11:48:07.059Z,2556.00
2019-06-07T11:49:06.315Z,2584.00
2019-06-07T11:50:05.615Z,2612.00
2019-06-07T11:51:06.686Z,2624.00
2019-06-07T11:52:05.626Z,2652.00
2019-06-07T11:53:06.459Z,2708.00
2019-06-07T11:54:05.575Z,2720.00
2019-06-07T11:55:06.632Z,2740.00
2019-06-07T11:56:05.605Z,2832.00
2019-06-07T11:57:06.757Z,2876.00
2019-06-07T11:58:09.753Z,2968.00
2019-06-07T11:59:07.039Z,3212.00
2019-06-07T12:00:05.517Z,3536.00
2019-06-07T12:01:05.533Z,3856.00
2019-06-07T12:02:05.510Z,4172.00
2019-06-07T12:03:05.477Z,4564.00
2019-06-07T12:04:05.465Z,5852.00
2019-06-07T12:05:05.451Z,5980.00
2019-06-07T12:06:05.440Z,5588.00
2019-06-07T12:07:05.501Z,6016.00
2019-06-07T12:08:05.490Z,6004.00
2019-06-07T12:09:05.425Z,6604.00
2019-06-07T12:10:05.399Z,7388.00
2019-06-07T12:11:05.385Z,8160.00
2019-06-07T12:12:05.544Z,9008.00
2019-06-07T12:13:05.366Z,9728.00
2019-06-07T12:14:05.417Z,9976.00
2019-06-07T12:15:06.344Z,9784.00
2019-06-07T12:16:05.357Z,9732.00
2019-06-07T12:17:05.314Z,9564.00
2019-06-07T12:18:05.334Z,9580.00
2019-06-07T12:19:05.295Z,9744.00
2019-06-07T12:20:08.409Z,9892.00
2019-06-07T12:21:05.274Z,10664.00
2019-06-07T12:22:05.289Z,10868.00
2019-06-07T12:23:05.268Z,11292.00
2019-06-07T12:24:05.324Z,10708.00
2019-06-07T12:25:06.013Z,9556.00
2019-06-07T12:26:05.219Z,9032.00
2019-06-07T12:27:05.208Z,8256.00
2019-06-07T12:28:05.216Z,7796.00
2019-06-07T12:29:05.191Z,7740.00
2019-06-07T12:30:11.294Z,7260.00
2019-06-07T12:31:06.164Z,7452.00
2019-06-07T12:32:05.177Z,7596.00
2019-06-07T12:33:05.146Z,8100.00
2019-06-07T12:34:05.209Z,8480.00
2019-06-07T12:35:05.124Z,8572.00
2019-06-07T12:36:05.109Z,8660.00
2019-06-07T12:37:05.113Z,10552.00
2019-06-07T12:38:05.133Z,12424.00
2019-06-07T12:39:05.243Z,13172.00
2019-06-07T12:40:05.089Z,26368.00